Time;durP1;ratioP1;P1;durP2;ratioP2;P2;SDS_P1;SDS_P2;PMS_P1;PMS_P2;Temp;Humidity;BMP_temperature;BMP_pressure;BME280_temperature;BME280_humidity;BME280_pressure;Samples;Min_cycle;Max_cycle;Signal;HPM_P1;HPM_P2
2023/07/30 00:01:10;;;;;;;6.30;3.00;;;;;;;21.61;100.00;100048.63;5017496;28;20034;-76
2023/07/30 00:03:35;;;;;;;4.78;2.15;;;;;;;21.79;100.00;100078.81;5009813;28;20077;-76
2023/07/30 00:06:01;;;;;;;7.93;4.20;;;;;;;22.45;100.00;100182.34;5005619;28;20026;-77
2023/07/30 00:08:26;;;;;;;3.60;1.90;;;;;;;21.66;100.00;100064.41;5015479;28;20425;-76
2023/07/30 00:10:52;;;;;;;2.92;2.03;;;;;;;22.23;100.00;100171.03;5019310;28;20119;-75
2023/07/30 00:13:17;;;;;;;6.28;3.10;;;;;;;21.63;100.00;100081.44;5020273;28;20520;-76
2023/07/30 00:15:45;;;;;;;4.18;2.83;;;;;;;21.85;100.00;100153.31;5009367;28;20160;-76
2023/07/30 00:18:11;;;;;;;3.72;1.98;;;;;;;21.76;100.00;100155.59;5015253;28;20764;-75
2023/07/30 00:20:36;;;;;;;4.25;3.30;;;;;;;21.97;100.00;100175.88;5011538;28;20029;-75
2023/07/30 00:23:02;;;;;;;7.65;3.30;;;;;;;21.18;100.00;100074.75;5015988;28;20436;-77
2023/07/30 00:25:28;;;;;;;5.78;3.08;;;;;;;21.56;100.00;100153.91;5006605;28;20056;-75
2023/07/30 00:27:53;;;;;;;4.32;2.70;;;;;;;21.79;100.00;100182.16;5020362;28;20066;-77
2023/07/30 00:30:18;;;;;;;6.05;3.33;;;;;;;21.62;100.00;100137.59;5009324;28;20045;-75
2023/07/30 00:32:45;;;;;;;3.83;2.38;;;;;;;21.98;100.00;100185.59;4997790;28;20038;-75
2023/07/30 00:35:10;;;;;;;4.95;2.70;;;;;;;21.53;100.00;100076.66;5017488;28;20042;-75
2023/07/30 00:37:36;;;;;;;7.40;3.65;;;;;;;21.65;100.00;100127.59;5020804;28;20037;-78
2023/07/30 00:40:03;;;;;;;5.68;3.22;;;;;;;21.88;100.00;100192.38;5016672;28;20481;-76
2023/07/30 00:42:29;;;;;;;3.35;2.83;;;;;;;21.89;100.00;100208.31;5018497;28;20525;-76
2023/07/30 00:44:54;;;;;;;4.53;2.30;;;;;;;21.89;100.00;100194.09;5017894;28;20033;-77
2023/07/30 00:47:21;;;;;;;3.75;2.15;;;;;;;21.83;100.00;100175.72;5021295;28;20036;-75
2023/07/30 00:49:47;;;;;;;4.45;2.90;;;;;;;21.35;100.00;100097.06;5013454;28;20046;-75
2023/07/30 00:52:12;;;;;;;7.32;2.17;;;;;;;21.73;100.00;100172.66;5018860;28;20050;-76
2023/07/30 00:54:39;;;;;;;3.88;2.25;;;;;;;21.75;100.00;100167.19;5022734;28;20474;-75
2023/07/30 00:57:06;;;;;;;4.57;1.90;;;;;;;21.24;100.00;100054.94;5013543;28;20045;-78
2023/07/30 00:59:33;;;;;;;4.07;2.10;;;;;;;21.52;100.00;100155.00;5003030;28;20113;-77
2023/07/30 01:01:59;;;;;;;5.53;2.60;;;;;;;21.03;100.00;100092.38;5010558;28;20073;-75
2023/07/30 01:04:25;;;;;;;12.63;3.17;;;;;;;21.57;100.00;100161.00;5010142;28;20501;-74
2023/07/30 01:06:51;;;;;;;4.35;2.35;;;;;;;21.45;100.00;100157.13;5013771;28;20045;-76
2023/07/30 01:09:16;;;;;;;4.57;2.17;;;;;;;20.67;100.00;100063.00;5012764;28;20094;-75
2023/07/30 01:11:43;;;;;;;4.28;1.95;;;;;;;20.74;100.00;100063.56;5019294;28;20533;-77
2023/07/30 01:14:09;;;;;;;5.18;2.63;;;;;;;21.24;100.00;100156.34;4989437;28;20034;-76
2023/07/30 01:16:35;;;;;;;5.57;2.53;;;;;;;21.25;100.00;100150.91;5010991;28;20618;-75
2023/07/30 01:19:04;;;;;;;4.05;1.80;;;;;;;21.28;100.00;100157.91;5003107;28;20644;-76
2023/07/30 01:21:32;;;;;;;3.85;2.15;;;;;;;21.41;100.00;100161.75;5000639;28;20045;-76
2023/07/30 01:23:58;;;;;;;3.50;2.67;;;;;;;20.85;100.00;100072.78;5006502;28;20034;-74
2023/07/30 01:26:30;;;;;;;5.18;3.40;;;;;;;21.26;100.00;100162.47;5000621;28;20033;-75
2023/07/30 01:29:00;;;;;;;5.65;1.85;;;;;;;20.72;100.00;100074.34;5012836;28;20239;-75
2023/07/30 01:31:27;;;;;;;4.03;2.45;;;;;;;20.90;100.00;100091.25;5002929;28;20136;-75
2023/07/30 01:33:55;;;;;;;2.05;1.02;;;;;;;21.22;100.00;100167.06;5006358;28;20034;-78
2023/07/30 01:36:21;;;;;;;3.92;2.00;;;;;;;21.19;100.00;100131.66;5008233;28;20050;-77
2023/07/30 01:38:49;;;;;;;3.60;1.90;;;;;;;20.71;100.00;100071.72;4993275;28;20042;-76
2023/07/30 01:41:14;;;;;;;3.50;1.75;;;;;;;20.67;100.00;100121.66;4999197;28;20073;-75
2023/07/30 01:43:40;;;;;;;4.03;1.75;;;;;;;20.94;100.00;100156.00;5003305;28;20449;-75
2023/07/30 01:46:05;;;;;;;5.65;3.50;;;;;;;20.27;100.00;100038.19;4996800;28;20105;-74
2023/07/30 01:48:31;;;;;;;4.35;2.17;;;;;;;21.07;100.00;100151.78;5000255;28;20038;-76
2023/07/30 01:50:56;;;;;;;6.43;2.08;;;;;;;20.70;100.00;100091.31;5016386;28;20022;-75
2023/07/30 01:53:21;;;;;;;4.88;2.70;;;;;;;20.31;100.00;100041.59;4992619;28;20022;-76
2023/07/30 01:55:47;;;;;;;3.58;2.45;;;;;;;20.94;100.00;100129.31;5016341;28;20717;-75
2023/07/30 01:58:13;;;;;;;5.82;2.88;;;;;;;20.88;100.00;100111.78;5014327;28;20038;-75
2023/07/30 02:00:39;;;;;;;4.25;2.03;;;;;;;20.26;100.00;100041.78;5009406;28;20044;-76
2023/07/30 02:03:05;;;;;;;8.20;4.10;;;;;;;20.90;100.00;100115.25;5014445;28;20030;-76
2023/07/30 02:05:30;;;;;;;3.53;2.35;;;;;;;21.16;100.00;100148.69;5020211;28;20730;-76
2023/07/30 02:07:56;;;;;;;4.25;2.13;;;;;;;20.41;100.00;100030.41;5047030;28;20788;-77
2023/07/30 02:10:21;;;;;;;4.63;3.42;;;;;;;20.72;100.00;100108.09;5008829;28;20438;-75
2023/07/30 02:12:47;;;;;;;5.78;3.25;;;;;;;20.21;100.00;100047.31;5013893;28;20153;-76
2023/07/30 02:15:12;;;;;;;4.80;3.35;;;;;;;20.50;100.00;100057.56;5010157;28;20034;-75
2023/07/30 02:17:38;;;;;;;5.75;3.72;;;;;;;21.14;100.00;100147.91;5017242;28;20025;-75
2023/07/30 02:20:04;;;;;;;7.50;3.47;;;;;;;20.73;100.00;100124.06;5012188;28;20041;-75
2023/07/30 02:22:29;;;;;;;3.55;1.98;;;;;;;20.51;100.00;100107.28;5016460;28;20698;-75
2023/07/30 02:24:57;;;;;;;6.28;3.08;;;;;;;20.63;100.00;100155.63;5018661;28;20041;-76
2023/07/30 02:27:22;;;;;;;5.00;2.53;;;;;;;20.02;100.00;100049.97;5012225;28;20045;-77
2023/07/30 02:29:48;;;;;;;4.32;2.47;;;;;;;20.22;100.00;100089.00;5009179;28;20763;-77
2023/07/30 02:32:13;;;;;;;9.15;2.35;;;;;;;20.26;100.00;100092.41;5015241;28;20029;-76
2023/07/30 02:34:39;;;;;;;4.30;1.70;;;;;;;20.37;100.00;100145.22;5014997;28;20457;-77
2023/07/30 02:37:04;;;;;;;3.65;2.10;;;;;;;20.34;100.00;100158.69;5020848;28;20061;-75
2023/07/30 02:39:30;;;;;;;3.45;1.98;;;;;;;20.38;100.00;100134.50;5012904;28;20033;-75
2023/07/30 02:41:55;;;;;;;5.72;2.22;;;;;;;19.76;100.00;100050.25;5017474;28;20026;-76
2023/07/30 02:44:21;;;;;;;7.03;3.13;;;;;;;20.58;100.00;100138.06;5015542;28;20029;-76
2023/07/30 02:46:46;;;;;;;3.80;2.17;;;;;;;19.99;100.00;100036.78;5016214;28;20034;-75
2023/07/30 02:49:11;;;;;;;4.00;2.35;;;;;;;19.85;100.00;100057.81;5013294;28;20041;-75
2023/07/30 02:51:37;;;;;;;3.38;2.35;;;;;;;19.85;100.00;100033.00;5012442;28;20034;-76
2023/07/30 02:54:07;;;;;;;3.42;2.30;;;;;;;20.74;100.00;100156.91;5016112;28;20068;-75
2023/07/30 02:56:32;;;;;;;6.95;2.70;;;;;;;20.23;100.00;100088.09;5013159;28;20106;-75
2023/07/30 02:58:59;;;;;;;5.22;2.78;;;;;;;20.62;100.00;100163.66;5041101;28;20048;-75
2023/07/30 03:01:24;;;;;;;5.30;2.72;;;;;;;20.17;100.00;100080.38;5010613;28;20649;-74
2023/07/30 03:03:50;;;;;;;3.20;1.60;;;;;;;20.09;100.00;100057.66;5012658;28;20053;-75
2023/07/30 03:06:16;;;;;;;5.07;2.50;;;;;;;20.66;100.00;100147.47;5014743;28;20048;-75
2023/07/30 03:08:43;;;;;;;7.60;2.45;;;;;;;20.63;100.00;100154.75;5006730;28;20139;-75
2023/07/30 03:11:08;;;;;;;2.83;2.22;;;;;;;20.31;100.00;100077.06;4989787;28;20069;-75
2023/07/30 03:13:34;;;;;;;5.68;3.00;;;;;;;20.30;100.00;100074.47;5014304;28;20595;-75
2023/07/30 03:15:59;;;;;;;7.53;3.70;;;;;;;20.17;100.00;100045.72;5007162;28;20763;-74
2023/07/30 03:18:24;;;;;;;5.10;3.13;;;;;;;20.77;100.00;100156.78;5007457;28;20045;-76
2023/07/30 03:20:50;;;;;;;9.85;2.95;;;;;;;20.74;100.00;100175.56;5007651;28;20039;-76
2023/07/30 03:23:15;;;;;;;4.20;2.47;;;;;;;20.55;100.00;100170.19;4996312;28;20033;-75
2023/07/30 03:25:41;;;;;;;3.13;1.52;;;;;;;19.81;100.00;100070.41;4991206;28;20026;-76
2023/07/30 03:28:06;;;;;;;6.00;2.92;;;;;;;19.96;100.00;100092.84;4994672;28;20034;-76
2023/07/30 03:30:32;;;;;;;5.50;4.18;;;;;;;19.91;100.00;100102.84;5007843;28;20111;-76
2023/07/30 03:32:57;;;;;;;7.82;2.88;;;;;;;20.54;100.00;100201.31;5000295;28;20371;-75
2023/07/30 03:35:23;;;;;;;4.53;2.58;;;;;;;19.84;100.00;100082.72;4997975;28;20375;-78
2023/07/30 03:37:48;;;;;;;4.80;2.50;;;;;;;20.44;100.00;100184.88;4998525;28;20046;-77
2023/07/30 03:40:14;;;;;;;10.98;3.28;;;;;;;20.10;100.00;100110.03;5003306;28;20057;-76
2023/07/30 03:42:39;;;;;;;3.70;2.25;;;;;;;20.09;100.00;100094.94;4998019;28;20125;-76
2023/07/30 03:45:05;;;;;;;6.45;2.85;;;;;;;20.60;100.00;100182.41;5005679;28;20037;-76
2023/07/30 03:47:31;;;;;;;4.68;2.40;;;;;;;20.20;100.00;100108.66;5020442;28;20044;-75
2023/07/30 03:49:56;;;;;;;3.50;1.52;;;;;;;20.64;100.00;100161.81;4992181;28;20050;-77
2023/07/30 03:52:22;;;;;;;6.75;3.28;;;;;;;20.32;100.00;100108.13;4994922;28;20061;-75
2023/07/30 03:54:47;;;;;;;5.32;4.15;;;;;;;20.17;100.00;100071.50;4997452;28;20057;-75
2023/07/30 03:57:12;;;;;;;6.40;3.40;;;;;;;20.80;100.00;100177.97;4990898;28;20177;-75
2023/07/30 03:59:38;;;;;;;4.25;2.10;;;;;;;20.39;100.00;100108.69;4991679;28;20027;-76
2023/07/30 04:02:04;;;;;;;4.55;2.88;;;;;;;20.48;100.00;100094.09;5020883;28;20038;-75
2023/07/30 04:04:30;;;;;;;3.92;1.73;;;;;;;20.77;100.00;100191.47;5006205;28;20572;-76
2023/07/30 04:06:55;;;;;;;5.25;3.10;;;;;;;20.01;100.00;100085.50;4995076;28;20058;-77
2023/07/30 04:09:20;;;;;;;3.28;2.00;;;;;;;20.59;100.00;100188.66;4994216;28;20529;-76
2023/07/30 04:11:46;;;;;;;3.28;1.85;;;;;;;20.06;100.00;100098.63;5001852;28;20382;-75
2023/07/30 04:14:11;;;;;;;4.90;1.60;;;;;;;19.98;100.00;100090.97;5017214;28;20021;-78
2023/07/30 04:16:37;;;;;;;5.22;2.55;;;;;;;20.23;100.00;100133.38;5007008;28;20030;-78
2023/07/30 04:19:02;;;;;;;4.18;2.33;;;;;;;20.22;100.00;100128.97;5011857;28;20044;-76
2023/07/30 04:21:28;;;;;;;4.68;2.60;;;;;;;20.04;100.00;100087.16;5014074;28;20054;-76
2023/07/30 04:23:53;;;;;;;4.28;2.10;;;;;;;20.66;100.00;100170.59;4991639;28;20022;-78
2023/07/30 04:26:19;;;;;;;7.20;2.42;;;;;;;19.95;100.00;100074.28;5008803;28;20030;-75
2023/07/30 04:28:44;;;;;;;5.68;3.65;;;;;;;20.71;100.00;100211.25;4993150;28;20077;-77
2023/07/30 04:31:10;;;;;;;3.22;1.92;;;;;;;20.84;100.00;100212.44;5001441;28;20045;-76
2023/07/30 04:33:35;;;;;;;5.20;2.80;;;;;;;20.95;100.00;100209.25;5012606;28;20413;-75
2023/07/30 04:36:00;;;;;;;3.88;1.88;;;;;;;20.37;100.00;100078.59;4995678;28;20467;-77
2023/07/30 04:38:26;;;;;;;4.13;2.30;;;;;;;20.49;100.00;100120.69;5019622;28;20033;-75
2023/07/30 04:40:51;;;;;;;4.22;1.92;;;;;;;21.13;100.00;100206.69;5012544;28;20129;-75
2023/07/30 04:43:17;;;;;;;4.85;3.05;;;;;;;21.23;100.00;100211.50;5012933;28;20129;-75
2023/07/30 04:45:43;;;;;;;5.95;2.30;;;;;;;21.31;100.00;100208.47;5010502;28;20038;-75
2023/07/30 04:48:08;;;;;;;4.22;3.15;;;;;;;21.24;100.00;100165.19;5010218;28;20154;-76
2023/07/30 04:50:34;;;;;;;5.40;2.88;;;;;;;21.26;100.00;100158.00;5015154;28;20073;-75
2023/07/30 04:52:59;;;;;;;3.40;1.92;;;;;;;20.83;100.00;100093.34;5008645;28;20553;-74
2023/07/30 04:55:25;;;;;;;4.50;2.67;;;;;;;21.62;100.00;100210.56;5012711;28;20041;-75
2023/07/30 04:57:50;;;;;;;4.20;2.50;;;;;;;21.24;100.00;100126.97;5007394;28;20058;-75
2023/07/30 05:00:16;;;;;;;4.18;2.33;;;;;;;21.48;100.00;100208.56;5019292;28;20060;-75
2023/07/30 05:02:42;;;;;;;3.95;2.92;;;;;;;21.46;100.00;100189.06;5013646;28;20533;-75
2023/07/30 05:05:08;;;;;;;4.00;2.17;;;;;;;21.81;100.00;100205.16;5015277;28;20045;-75
2023/07/30 05:07:33;;;;;;;6.15;3.35;;;;;;;21.58;100.00;100144.03;5012865;28;20129;-75
2023/07/30 05:09:59;;;;;;;4.07;2.53;;;;;;;21.95;100.00;100204.47;5016943;28;20513;-75
2023/07/30 05:12:24;;;;;;;3.83;2.38;;;;;;;21.80;100.00;100190.09;5009695;28;20474;-76
2023/07/30 05:14:50;;;;;;;8.00;3.78;;;;;;;22.02;100.00;100187.19;5018444;28;20495;-75
2023/07/30 05:17:15;;;;;;;2.95;1.80;;;;;;;22.07;100.00;100187.81;5015497;28;20120;-75
2023/07/30 05:19:40;;;;;;;4.55;2.55;;;;;;;21.99;100.00;100099.19;5011892;28;20455;-75
2023/07/30 05:22:07;;;;;;;6.90;2.10;;;;;;;23.01;100.00;100203.44;5013335;28;20049;-74
2023/07/30 05:24:33;;;;;;;5.70;2.35;;;;;;;23.18;100.00;100169.44;5009754;28;20034;-75
2023/07/30 05:26:59;;;;;;;7.20;2.88;;;;;;;23.02;100.00;100141.81;5021158;28;20025;-75
2023/07/30 05:29:24;;;;;;;4.22;2.40;;;;;;;23.55;100.00;100107.53;5007299;28;20212;-75
2023/07/30 05:31:50;;;;;;;3.55;1.67;;;;;;;23.96;100.00;100155.16;5017607;28;20464;-75
2023/07/30 05:34:15;;;;;;;3.85;2.38;;;;;;;24.46;100.00;100110.97;5018095;28;20022;-74
2023/07/30 05:36:41;;;;;;;3.05;2.10;;;;;;;25.48;100.00;100192.19;5009471;28;20066;-76
2023/07/30 05:39:06;;;;;;;3.85;2.50;;;;;;;25.64;100.00;100216.22;5015848;28;20042;-75
2023/07/30 05:41:32;;;;;;;3.95;1.88;;;;;;;25.60;100.00;100169.00;5021216;28;20026;-77
2023/07/30 05:43:57;;;;;;;4.75;3.15;;;;;;;26.41;100.00;100180.59;5013212;28;20443;-75
2023/07/30 05:46:23;;;;;;;3.42;2.10;;;;;;;26.34;100.00;100115.63;5015316;28;20065;-77
2023/07/30 05:48:48;;;;;;;5.45;2.95;;;;;;;26.82;100.00;100131.06;5015850;28;20042;-75
2023/07/30 05:51:13;;;;;;;3.35;2.45;;;;;;;27.42;100.00;100208.41;5020115;28;20809;-75
2023/07/30 05:53:39;;;;;;;5.43;4.93;;;;;;;27.75;100.00;100172.69;5008427;28;20026;-76
2023/07/30 05:56:04;;;;;;;3.20;1.58;;;;;;;27.83;100.00;100215.28;5015679;28;20049;-75
2023/07/30 05:58:30;;;;;;;6.88;2.25;;;;;;;28.12;100.00;100193.31;5007284;28;20123;-77
2023/07/30 06:00:56;;;;;;;2.35;1.60;;;;;;;28.19;100.00;100159.50;5016914;28;20037;-75
2023/07/30 06:03:22;;;;;;;3.95;1.95;;;;;;;27.61;100.00;100199.81;5014350;28;20139;-74
2023/07/30 06:05:47;;;;;;;3.28;1.55;;;;;;;28.58;100.00;100230.25;5019674;28;20544;-75
2023/07/30 06:08:13;;;;;;;4.60;2.45;;;;;;;28.15;100.00;100120.25;5013274;28;20018;-76
2023/07/30 06:10:40;;;;;;;3.10;1.55;;;;;;;28.08;100.00;100195.41;5012518;28;20119;-76
2023/07/30 06:13:05;;;;;;;3.08;2.15;;;;;;;28.47;99.32;100211.34;5017237;28;20045;-76
2023/07/30 06:15:32;;;;;;;2.65;1.92;;;;;;;27.91;100.00;100209.28;5011911;28;20480;-77
2023/07/30 06:17:58;;;;;;;4.85;2.63;;;;;;;28.60;98.42;100191.34;5013204;28;20431;-74
2023/07/30 06:20:23;;;;;;;3.63;1.58;;;;;;;28.03;98.64;100138.25;5018770;28;20038;-75
2023/07/30 06:22:49;;;;;;;2.85;1.63;;;;;;;28.88;97.78;100199.13;5016972;28;20416;-76
2023/07/30 06:25:14;;;;;;;2.88;2.08;;;;;;;28.44;95.11;100123.31;5015131;28;20061;-76
2023/07/30 06:27:40;;;;;;;3.55;2.28;;;;;;;29.14;89.82;100172.72;5011080;28;20073;-75
2023/07/30 06:30:06;;;;;;;4.95;1.95;;;;;;;29.15;89.24;100137.47;5015309;28;20069;-74
2023/07/30 06:32:31;;;;;;;3.17;1.77;;;;;;;29.20;87.88;100146.06;5016682;28;20561;-75
2023/07/30 06:34:57;;;;;;;3.55;1.73;;;;;;;29.19;88.40;100140.75;5009194;28;20417;-77
2023/07/30 06:37:22;;;;;;;3.92;1.73;;;;;;;28.61;88.97;100089.59;5011499;28;20039;-78
2023/07/30 06:39:47;;;;;;;2.55;1.55;;;;;;;29.51;84.94;100186.75;5012522;28;20048;-75
2023/07/30 06:42:13;;;;;;;5.25;2.35;;;;;;;29.24;81.02;100117.78;5012847;28;20131;-76
2023/07/30 06:44:39;;;;;;;4.07;1.58;;;;;;;28.83;87.21;100180.56;5006038;28;20081;-75
2023/07/30 06:47:04;;;;;;;4.13;2.35;;;;;;;28.93;83.10;100105.03;5009316;28;20049;-76
2023/07/30 06:49:30;;;;;;;3.97;2.38;;;;;;;29.66;81.45;100177.38;5013992;28;20085;-77
2023/07/30 06:51:55;;;;;;;5.57;1.85;;;;;;;28.92;80.81;100084.44;5019465;28;20060;-77
2023/07/30 06:54:21;;;;;;;4.35;3.08;;;;;;;28.85;86.34;100202.06;5017156;28;20048;-77
2023/07/30 06:56:46;;;;;;;3.60;1.52;;;;;;;28.64;89.53;100091.22;5010395;28;20441;-76
2023/07/30 06:59:12;;;;;;;4.07;2.17;;;;;;;29.31;84.13;100176.72;5004347;28;20084;-76
2023/07/30 07:01:37;;;;;;;3.17;2.70;;;;;;;29.10;79.35;100093.72;5012552;28;20058;-75
2023/07/30 07:04:03;;;;;;;4.07;1.80;;;;;;;29.65;77.70;100101.78;5007013;28;20083;-77
2023/07/30 07:06:28;;;;;;;3.65;1.55;;;;;;;29.81;78.06;100177.97;5011882;28;20045;-77
2023/07/30 07:08:54;;;;;;;2.50;1.55;;;;;;;28.70;79.36;100083.47;5007634;28;20378;-76
2023/07/30 07:11:19;;;;;;;3.83;2.42;;;;;;;29.16;83.81;100176.16;5004879;28;20034;-75
2023/07/30 07:13:45;;;;;;;3.90;2.70;;;;;;;29.13;84.67;100101.59;5004481;28;20053;-75
2023/07/30 07:16:10;;;;;;;11.32;2.95;;;;;;;29.36;82.70;100097.00;5000825;28;20137;-74
2023/07/30 07:18:36;;;;;;;2.67;1.77;;;;;;;28.53;78.86;100076.72;5003934;28;20838;-80
2023/07/30 07:21:02;;;;;;;3.13;1.90;;;;;;;28.79;79.92;100071.91;5005812;28;20050;-79
2023/07/30 07:23:27;;;;;;;1.60;1.38;;;;;;;29.08;78.70;100171.38;5006980;28;20117;-80
2023/07/30 07:25:53;;;;;;;3.45;1.80;;;;;;;28.50;78.26;100059.94;4999704;28;20120;-85
2023/07/30 07:28:18;;;;;;;3.33;1.92;;;;;;;29.08;71.71;100163.28;5009306;28;20049;-80
2023/07/30 07:30:44;;;;;;;4.13;0.95;;;;;;;28.90;70.87;100106.16;4992282;28;20132;-79
2023/07/30 07:33:12;;;;;;;2.45;1.00;;;;;;;28.05;67.63;100030.19;4998705;28;20042;-81
2023/07/30 07:35:41;;;;;;;2.08;1.25;;;;;;;29.01;69.53;100141.25;4999065;28;20050;-76
2023/07/30 07:38:06;;;;;;;2.60;1.60;;;;;;;28.62;75.22;100111.09;5037239;28;20577;-81
2023/07/30 07:40:42;;;;;;;2.97;1.58;;;;;;;28.62;71.03;100143.50;4996186;28;20065;-70
2023/07/30 07:43:08;;;;;;;3.63;2.03;;;;;;;28.76;81.02;100144.22;4997933;28;20058;-70
2023/07/30 07:45:34;;;;;;;1.80;1.13;;;;;;;28.92;72.82;100155.53;5000629;28;20050;-76
2023/07/30 07:47:59;;;;;;;14.25;8.30;;;;;;;29.00;72.34;100158.44;5001714;28;20452;-73
2023/07/30 07:50:25;;;;;;;4.00;1.88;;;;;;;28.92;72.24;100150.13;5005427;28;20041;-74
2023/07/30 07:52:50;;;;;;;2.65;1.45;;;;;;;28.83;76.62;100146.31;4995583;28;20043;-71
2023/07/30 07:55:16;;;;;;;4.85;2.95;;;;;;;28.54;92.31;100145.06;5008169;28;20110;-71
2023/07/30 07:57:42;;;;;;;4.18;2.40;;;;;;;28.30;88.94;100105.53;4996939;28;20041;-73
2023/07/30 08:00:08;;;;;;;3.28;1.40;;;;;;;28.05;84.73;100043.69;4999025;28;20121;-70
2023/07/30 08:02:34;;;;;;;2.90;1.77;;;;;;;28.83;76.97;100121.16;5000806;28;20105;-72
2023/07/30 08:05:00;;;;;;;5.40;1.67;;;;;;;28.67;73.34;100067.50;4998938;28;20398;-70
2023/07/30 08:07:25;;;;;;;2.78;1.80;;;;;;;28.94;79.76;100131.94;5005541;28;20615;-72
2023/07/30 08:09:51;;;;;;;3.30;1.92;;;;;;;29.25;77.02;100134.84;5003503;28;20057;-71
2023/07/30 08:12:18;;;;;;;2.63;1.70;;;;;;;29.35;65.22;100132.25;4991872;28;20484;-71
2023/07/30 08:14:44;;;;;;;2.38;1.50;;;;;;;29.24;73.96;100133.13;4997414;28;20176;-71
2023/07/30 08:17:09;;;;;;;4.88;2.80;;;;;;;29.69;67.12;100127.59;5005391;28;20026;-71
2023/07/30 08:19:35;;;;;;;1.95;1.20;;;;;;;29.52;63.67;100057.81;5008445;28;20057;-79
2023/07/30 08:22:00;;;;;;;2.78;1.80;;;;;;;29.30;66.86;100046.13;5004169;28;20463;-70
2023/07/30 08:24:26;;;;;;;5.53;2.85;;;;;;;29.51;61.11;100051.56;5003260;28;20052;-71
2023/07/30 08:26:51;;;;;;;3.08;2.03;;;;;;;30.19;59.46;100129.66;5003917;28;20037;-71
2023/07/30 08:29:16;;;;;;;3.70;1.73;;;;;;;30.19;58.17;100126.94;5006726;28;20034;-71
2023/07/30 08:31:42;;;;;;;3.13;2.35;;;;;;;29.93;57.56;100038.06;5003634;28;20046;-69
2023/07/30 08:34:07;;;;;;;2.53;1.50;;;;;;;30.21;56.65;100036.50;5000581;28;20054;-71
2023/07/30 08:36:33;;;;;;;4.60;2.70;;;;;;;30.75;57.25;100131.09;5004011;28;20138;-72
2023/07/30 08:38:58;;;;;;;3.38;2.17;;;;;;;31.07;58.08;100112.84;5000853;28;20050;-71
2023/07/30 08:41:24;;;;;;;6.82;1.70;;;;;;;31.04;55.73;100117.66;5008093;28;20496;-68
2023/07/30 08:43:51;;;;;;;2.40;1.38;;;;;;;31.24;56.37;100121.28;5007267;28;20057;-71
2023/07/30 08:46:17;;;;;;;2.83;1.88;;;;;;;31.51;56.46;100101.63;5007775;28;20084;-72
2023/07/30 08:48:43;;;;;;;2.78;1.23;;;;;;;31.52;52.87;100097.94;5005019;28;20058;-71
2023/07/30 08:51:10;;;;;;;2.45;1.70;;;;;;;31.82;51.11;100106.88;5016953;28;21821;-71
2023/07/30 08:53:36;;;;;;;1.92;1.48;;;;;;;31.91;52.45;100101.47;5007571;28;20045;-70
2023/07/30 08:56:02;;;;;;;7.88;2.25;;;;;;;32.37;50.95;100109.78;5001203;28;20114;-71
2023/07/30 08:58:29;;;;;;;2.03;1.33;;;;;;;32.41;49.11;100107.66;5002270;28;20086;-70
2023/07/30 09:00:56;;;;;;;2.72;0.85;;;;;;;32.00;45.42;100034.59;5001030;28;20042;-71
2023/07/30 09:03:24;;;;;;;4.75;2.25;;;;;;;32.08;45.30;100026.59;5031262;28;20168;-69
2023/07/30 09:05:50;;;;;;;3.72;3.42;;;;;;;32.41;44.83;100018.03;5001514;28;20378;-71
2023/07/30 09:08:17;;;;;;;3.97;1.55;;;;;;;33.04;45.85;100099.69;5006295;28;20053;-74
2023/07/30 09:10:43;;;;;;;2.00;1.23;;;;;;;33.12;41.73;100104.34;5008485;28;20052;-69
2023/07/30 09:13:08;;;;;;;3.38;1.50;;;;;;;32.62;43.53;100026.78;5005895;28;20043;-79
2023/07/30 09:15:38;;;;;;;8.35;1.25;;;;;;;33.47;40.31;100094.50;5004197;28;20048;-73
2023/07/30 09:18:08;;;;;;;2.72;1.52;;;;;;;33.13;40.13;100024.44;5003420;28;20046;-70
2023/07/30 09:20:41;;;;;;;2.17;1.17;;;;;;;33.89;40.09;100097.41;4995618;28;20034;-67
2023/07/30 09:23:08;;;;;;;3.17;1.70;;;;;;;32.97;42.16;100023.28;5007898;28;20046;-69
2023/07/30 09:25:34;;;;;;;1.73;0.73;;;;;;;32.20;43.59;100010.13;5004403;28;20054;-71
2023/07/30 09:28:00;;;;;;;4.93;1.83;;;;;;;32.78;42.39;100088.66;5007736;28;20058;-72
2023/07/30 09:30:29;;;;;;;3.17;2.00;;;;;;;32.87;43.41;100000.72;5000465;28;20062;-72
2023/07/30 09:32:56;;;;;;;2.38;1.58;;;;;;;33.92;44.22;100075.31;5008860;28;20542;-71
2023/07/30 09:35:27;;;;;;;4.00;1.95;;;;;;;33.97;43.98;100072.13;5019720;28;20041;-72
2023/07/30 09:38:00;;;;;;;3.15;1.27;;;;;;;33.77;44.21;100072.31;5016848;28;20556;-70
2023/07/30 09:40:36;;;;;;;4.07;1.80;;;;;;;33.63;43.01;99978.50;5010399;28;20393;-73
2023/07/30 09:43:06;;;;;;;9.57;2.85;;;;;;;32.74;44.16;100062.78;5007948;28;20065;-71
2023/07/30 09:45:36;;;;;;;3.15;1.88;;;;;;;33.33;44.56;99982.50;4999012;28;20081;-72
2023/07/30 09:48:04;;;;;;;3.15;1.73;;;;;;;33.79;42.58;100043.09;5008383;28;20045;-72
2023/07/30 09:50:30;;;;;;;2.38;1.40;;;;;;;34.17;43.96;100054.56;5004199;28;20022;-71
2023/07/30 09:53:03;;;;;;;2.38;1.70;;;;;;;34.39;43.38;99984.19;5009351;28;20140;-73
2023/07/30 09:55:29;;;;;;;4.03;2.25;;;;;;;34.29;42.16;99970.69;5005537;28;20406;-70
2023/07/30 09:57:54;;;;;;;3.40;1.50;;;;;;;34.13;41.80;100060.50;5006275;28;20034;-69
2023/07/30 10:00:20;;;;;;;3.20;1.75;;;;;;;34.31;41.92;99955.03;5007974;28;20405;-79
2023/07/30 10:02:48;;;;;;;3.17;2.10;;;;;;;35.67;40.75;100040.19;5003072;28;20034;-83
2023/07/30 10:05:23;;;;;;;2.25;1.20;;;;;;;34.50;40.06;100034.81;5006353;28;20077;-78
2023/07/30 10:07:57;;;;;;;5.25;2.70;;;;;;;34.96;39.35;100040.75;5006294;28;20050;-79
2023/07/30 10:10:25;;;;;;;4.03;1.83;;;;;;;35.87;39.21;100035.22;5014248;28;20548;-79
2023/07/30 10:12:51;;;;;;;4.78;1.65;;;;;;;36.34;39.55;100023.50;5006624;28;20045;-81
2023/07/30 10:15:23;;;;;;;3.05;1.77;;;;;;;35.13;38.93;99946.22;5010335;28;20049;-81
2023/07/30 10:17:49;;;;;;;2.50;1.73;;;;;;;34.93;39.82;99932.03;5009838;28;20064;-80
2023/07/30 10:20:21;;;;;;;3.28;2.20;;;;;;;36.56;39.57;100031.94;5011168;28;20391;-82
2023/07/30 10:22:50;;;;;;;9.45;2.58;;;;;;;35.16;40.09;99954.91;5008487;28;20050;-82
2023/07/30 10:25:16;;;;;;;2.20;1.48;;;;;;;36.12;38.83;100005.13;5008571;28;20049;-81
2023/07/30 10:27:46;;;;;;;2.30;1.63;;;;;;;35.11;38.64;99919.09;5011054;28;20061;-81
2023/07/30 10:30:15;;;;;;;4.20;1.70;;;;;;;36.70;38.08;100022.16;5004720;28;20104;-81
2023/07/30 10:32:57;;;;;;;2.95;1.65;;;;;;;36.44;35.89;100020.56;5011888;28;20026;-82
2023/07/30 10:35:40;;;;;;;3.50;2.00;;;;;;;36.04;37.96;100003.25;5015821;28;20049;-81
2023/07/30 10:38:24;;;;;;;2.25;1.30;;;;;;;36.74;37.99;99987.97;5010120;28;20053;-80
2023/07/30 10:41:04;;;;;;;3.17;2.35;;;;;;;36.87;37.51;99914.34;5014352;28;20054;-81
2023/07/30 10:43:33;;;;;;;5.82;2.35;;;;;;;36.66;38.42;99916.91;5007595;28;20057;-81
2023/07/30 10:45:59;;;;;;;2.20;1.38;;;;;;;36.12;37.51;99977.81;5009298;28;20421;-80
2023/07/30 10:48:32;;;;;;;5.40;2.60;;;;;;;36.48;37.65;99985.50;5011859;28;20046;-81
2023/07/30 10:51:00;;;;;;;3.00;2.08;;;;;;;34.92;37.47;99908.53;5014967;28;20025;-82
2023/07/30 10:53:25;;;;;;;2.08;1.50;;;;;;;35.45;37.36;99926.22;5008766;28;20033;-80
2023/07/30 10:55:52;;;;;;;4.68;2.85;;;;;;;35.99;37.47;99912.81;5012474;28;20148;-81
2023/07/30 10:58:18;;;;;;;3.50;2.13;;;;;;;35.56;38.23;99884.06;5015203;28;20036;-80
2023/07/30 11:00:43;;;;;;;3.63;1.70;;;;;;;36.42;36.67;99921.47;5021062;28;20049;-81
2023/07/30 11:03:09;;;;;;;2.10;1.38;;;;;;;36.88;36.75;99961.72;5014207;28;20053;-80
2023/07/30 11:05:37;;;;;;;2.03;1.63;;;;;;;36.44;36.24;99918.56;5019076;28;20037;-80
2023/07/30 11:08:03;;;;;;;3.10;1.60;;;;;;;36.78;37.30;99884.53;5018768;28;20046;-82
2023/07/30 11:10:28;;;;;;;3.78;2.20;;;;;;;36.88;36.89;99893.34;5012063;28;20461;-81
2023/07/30 11:12:54;;;;;;;3.35;2.42;;;;;;;37.23;37.04;99948.44;5012953;28;20045;-81
2023/07/30 11:15:19;;;;;;;3.13;1.95;;;;;;;37.05;37.27;99881.22;5021987;28;20116;-81
2023/07/30 11:17:46;;;;;;;1.67;1.33;;;;;;;37.78;36.31;99955.47;5019011;28;20038;-81